createdAt,value
2022-10-31T00:01:17.808Z,21.67
2022-10-31T00:04:20.296Z,25.07
2022-10-31T00:07:22.786Z,25.50
2022-10-31T00:10:25.248Z,22.93
2022-10-31T00:13:27.743Z,23.77
2022-10-31T00:16:31.797Z,22.83
2022-10-31T00:19:34.296Z,18.90
2022-10-31T00:22:36.777Z,25.83
2022-10-31T00:25:40.805Z,21.93
2022-10-31T00:28:43.359Z,20.27
2022-10-31T00:31:47.209Z,24.73
2022-10-31T00:34:49.708Z,22.40
2022-10-31T00:37:53.828Z,24.10
2022-10-31T00:40:56.330Z,20.77
2022-10-31T00:43:58.914Z,22.93
2022-10-31T00:47:02.729Z,19.83
2022-10-31T00:50:06.259Z,20.00
2022-10-31T00:53:08.852Z,20.63
2022-10-31T00:56:11.483Z,19.47
2022-10-31T00:59:13.976Z,18.07
2022-10-31T01:02:17.930Z,18.97
2022-10-31T01:05:20.896Z,23.03
2022-10-31T01:08:23.398Z,26.57
2022-10-31T01:11:25.914Z,32.43
2022-10-31T01:14:28.396Z,29.20
2022-10-31T01:17:32.234Z,17.83
2022-10-31T01:20:34.719Z,23.73
2022-10-31T01:23:38.039Z,23.00
2022-10-31T01:26:40.532Z,26.87
2022-10-31T01:29:43.012Z,18.00
2022-10-31T01:32:46.809Z,24.50
2022-10-31T01:35:49.283Z,21.40
2022-10-31T01:38:54.185Z,16.43
2022-10-31T01:41:56.804Z,16.47
2022-10-31T01:45:02.060Z,26.10
2022-10-31T01:48:06.267Z,24.47
2022-10-31T01:51:09.786Z,20.23
2022-10-31T01:54:17.268Z,21.90
2022-10-31T01:57:22.104Z,19.17
2022-10-31T02:00:24.788Z,16.17
2022-10-31T02:03:29.262Z,26.63
2022-10-31T02:06:37.759Z,18.03
2022-10-31T02:09:42.710Z,15.47
2022-10-31T02:12:46.732Z,17.60
2022-10-31T02:15:52.252Z,26.37
2022-10-31T02:18:57.255Z,18.90
2022-10-31T02:22:07.933Z,23.30
2022-10-31T02:25:23.815Z,19.17
2022-10-31T02:28:39.517Z,20.47
2022-10-31T02:31:48.448Z,20.70
2022-10-31T02:35:00.282Z,22.00
2022-10-31T02:38:12.031Z,18.50
2022-10-31T02:41:21.864Z,17.20
2022-10-31T02:44:30.807Z,26.67
2022-10-31T02:47:38.472Z,22.70
2022-10-31T02:50:44.470Z,23.80
2022-10-31T02:53:46.986Z,19.83
2022-10-31T02:56:53.037Z,27.50
2022-10-31T03:00:01.801Z,26.60
2022-10-31T03:03:14.340Z,25.63
2022-10-31T03:06:22.506Z,30.03
2022-10-31T03:09:29.082Z,25.90
2022-10-31T03:12:43.111Z,28.77
2022-10-31T03:15:53.067Z,26.43
2022-10-31T03:19:01.799Z,26.20
2022-10-31T03:22:09.250Z,30.60
2022-10-31T03:25:13.972Z,25.03
2022-10-31T03:28:20.861Z,24.77
2022-10-31T03:31:28.664Z,26.70
2022-10-31T03:34:33.721Z,26.83
2022-10-31T03:37:38.411Z,30.10
2022-10-31T03:40:45.525Z,27.30
2022-10-31T03:43:53.923Z,31.23
2022-10-31T03:46:56.585Z,29.90
2022-10-31T03:50:00.473Z,26.77
2022-10-31T03:53:09.487Z,27.03
2022-10-31T03:56:19.129Z,29.57
2022-10-31T03:59:28.180Z,38.33
2022-10-31T04:02:35.650Z,28.70
2022-10-31T04:05:40.768Z,36.90
2022-10-31T04:08:50.441Z,39.77
2022-10-31T04:11:56.229Z,35.23
2022-10-31T04:15:00.798Z,31.87
2022-10-31T04:18:05.863Z,33.93
2022-10-31T04:21:10.551Z,33.23
2022-10-31T04:24:13.401Z,31.83
2022-10-31T04:27:15.868Z,38.37
2022-10-31T04:30:18.432Z,35.27
2022-10-31T04:33:20.940Z,35.13
2022-10-31T04:36:24.785Z,34.13
2022-10-31T04:39:27.252Z,28.67
2022-10-31T04:42:31.310Z,34.87
2022-10-31T04:45:33.790Z,35.47
2022-10-31T04:48:36.308Z,37.60
2022-10-31T04:51:40.111Z,38.87
2022-10-31T04:54:42.595Z,33.83
2022-10-31T04:57:46.421Z,32.67
2022-10-31T05:00:49.010Z,34.77
2022-10-31T05:03:51.538Z,41.37
2022-10-31T05:06:55.359Z,40.20
2022-10-31T05:09:57.824Z,37.97
2022-10-31T05:13:02.536Z,35.00
2022-10-31T05:16:05.773Z,31.07
2022-10-31T05:19:08.263Z,36.77
2022-10-31T05:22:12.059Z,38.17
2022-10-31T05:25:14.924Z,36.43
2022-10-31T05:28:17.410Z,40.80
2022-10-31T05:31:19.887Z,37.40
2022-10-31T05:34:22.376Z,37.07
2022-10-31T05:37:26.172Z,44.67
2022-10-31T05:40:29.900Z,41.47
2022-10-31T05:43:32.384Z,44.50
2022-10-31T05:49:42.304Z,47.37
2022-10-31T05:52:46.136Z,43.37
2022-10-31T05:55:48.666Z,50.27
2022-10-31T05:58:51.131Z,53.73
2022-10-31T06:01:53.663Z,52.53
2022-10-31T06:04:56.333Z,46.83
2022-10-31T06:08:01.051Z,46.60
2022-10-31T06:11:03.883Z,51.57
2022-10-31T06:14:07.067Z,52.50
2022-10-31T06:17:10.602Z,56.27
2022-10-31T06:20:13.363Z,65.43
2022-10-31T06:23:17.173Z,59.80
2022-10-31T06:26:19.661Z,63.20
2022-10-31T06:29:22.207Z,62.50
2022-10-31T06:32:24.669Z,61.53
2022-10-31T06:35:27.156Z,60.63
2022-10-31T06:38:31.237Z,64.43
2022-10-31T06:41:33.731Z,60.13
2022-10-31T06:44:36.232Z,62.80
2022-10-31T06:47:50.980Z,59.60
2022-10-31T06:50:59.858Z,52.73
2022-10-31T06:54:03.745Z,61.57
2022-10-31T06:57:06.260Z,63.73
2022-10-31T07:00:10.309Z,61.37
2022-10-31T07:03:14.754Z,60.33
2022-10-31T07:06:17.409Z,66.30
2022-10-31T07:09:21.365Z,62.70
2022-10-31T07:12:23.871Z,64.60
2022-10-31T07:15:26.706Z,64.93
2022-10-31T07:18:29.820Z,66.97
2022-10-31T07:21:32.301Z,71.97
2022-10-31T07:24:36.160Z,73.97
2022-10-31T07:27:41.717Z,62.83
2022-10-31T07:30:45.409Z,62.30
2022-10-31T07:33:47.895Z,69.67
2022-10-31T07:36:52.924Z,64.97
2022-10-31T07:39:56.750Z,70.63
2022-10-31T07:42:59.840Z,61.07
2022-10-31T07:46:02.325Z,67.37
2022-10-31T07:49:04.920Z,66.40
2022-10-31T07:52:07.436Z,63.40
2022-10-31T07:55:11.930Z,63.50
2022-10-31T07:58:16.449Z,76.70
2022-10-31T08:01:18.926Z,60.07
2022-10-31T08:04:21.419Z,65.80
2022-10-31T08:07:24.050Z,62.40
2022-10-31T08:10:29.376Z,65.00
2022-10-31T08:13:31.878Z,65.17
2022-10-31T08:16:34.355Z,64.03
2022-10-31T08:19:36.827Z,59.97
2022-10-31T08:22:42.812Z,59.50
2022-10-31T08:25:48.552Z,60.27
2022-10-31T08:28:51.484Z,60.40
2022-10-31T08:31:53.980Z,52.77
2022-10-31T08:34:56.452Z,49.53
2022-10-31T08:38:00.089Z,38.57
2022-10-31T08:41:04.241Z,44.03
2022-10-31T08:44:06.695Z,45.27
2022-10-31T08:47:09.200Z,43.67
2022-10-31T08:50:11.674Z,51.83
2022-10-31T08:53:17.175Z,55.23
2022-10-31T08:56:21.060Z,56.57
2022-10-31T08:59:23.728Z,67.90
2022-10-31T09:02:26.439Z,66.47
2022-10-31T09:05:29.084Z,67.67
2022-10-31T09:08:32.661Z,66.67
2022-10-31T09:11:36.471Z,62.63
2022-10-31T09:14:38.952Z,57.50
2022-10-31T09:17:41.436Z,52.20
2022-10-31T09:20:45.572Z,62.43
2022-10-31T09:23:48.060Z,57.50
2022-10-31T09:26:51.890Z,48.73
2022-10-31T09:29:54.359Z,48.10
2022-10-31T09:32:57.498Z,49.47
2022-10-31T09:36:00.461Z,51.50
2022-10-31T09:39:03.135Z,43.67
2022-10-31T09:42:25.579Z,36.40
2022-10-31T09:45:33.191Z,44.03
2022-10-31T09:48:45.087Z,41.80
2022-10-31T09:51:53.831Z,46.87
2022-10-31T09:55:00.889Z,45.23
2022-10-31T09:58:05.395Z,44.20
2022-10-31T10:01:14.154Z,42.40
2022-10-31T10:04:32.305Z,38.93
2022-10-31T10:07:45.407Z,44.90
2022-10-31T10:10:53.172Z,41.67
2022-10-31T10:14:20.816Z,43.60
2022-10-31T10:17:34.993Z,47.87
2022-10-31T10:20:45.683Z,44.70
2022-10-31T10:23:58.443Z,43.10
2022-10-31T10:27:15.797Z,41.73
2022-10-31T10:30:25.529Z,41.20
2022-10-31T10:33:33.648Z,39.13
2022-10-31T10:36:43.895Z,38.03
2022-10-31T10:39:50.675Z,36.83
2022-10-31T10:43:22.900Z,37.20
2022-10-31T10:46:53.871Z,46.20
2022-10-31T10:49:56.735Z,42.07
2022-10-31T10:53:09.119Z,36.03
2022-10-31T10:56:19.509Z,38.93
2022-10-31T10:59:23.962Z,30.80
2022-10-31T11:02:29.536Z,32.27
2022-10-31T11:05:37.927Z,33.53
2022-10-31T11:08:40.423Z,33.40
2022-10-31T11:11:43.156Z,37.40
2022-10-31T11:14:48.832Z,32.30
2022-10-31T11:17:54.384Z,35.80
2022-10-31T11:20:59.134Z,35.23
2022-10-31T11:24:05.447Z,37.33
2022-10-31T11:27:16.193Z,35.27
2022-10-31T11:30:18.702Z,34.47
2022-10-31T11:33:28.599Z,31.90
2022-10-31T11:36:33.008Z,32.10
2022-10-31T11:39:43.662Z,36.87
2022-10-31T11:42:47.072Z,33.60
2022-10-31T11:45:49.873Z,33.83
2022-10-31T11:48:57.352Z,32.67
2022-10-31T11:52:03.194Z,30.17
2022-10-31T11:55:18.078Z,30.87
2022-10-31T11:58:25.143Z,29.33
2022-10-31T12:01:29.846Z,32.40
2022-10-31T12:04:45.520Z,28.33
2022-10-31T12:07:48.432Z,28.30
2022-10-31T12:11:03.197Z,28.57
2022-10-31T12:14:19.119Z,26.20
2022-10-31T12:17:25.576Z,32.80
2022-10-31T12:20:42.425Z,26.20
2022-10-31T12:23:57.313Z,28.97
2022-10-31T12:27:11.973Z,28.30
2022-10-31T12:30:20.742Z,25.50
2022-10-31T12:33:36.450Z,29.33
2022-10-31T12:36:51.763Z,26.57
2022-10-31T12:40:07.568Z,25.90
2022-10-31T12:43:26.194Z,24.83
2022-10-31T12:46:54.570Z,21.03
2022-10-31T12:50:07.924Z,23.57
2022-10-31T12:53:24.615Z,25.40
2022-10-31T12:56:39.055Z,22.33
2022-10-31T12:59:47.305Z,22.83
2022-10-31T13:02:54.882Z,25.50
2022-10-31T13:06:01.499Z,27.33
2022-10-31T13:09:09.951Z,19.67
2022-10-31T13:12:17.071Z,21.30
2022-10-31T13:15:22.676Z,24.83
2022-10-31T13:18:31.256Z,19.03
2022-10-31T13:21:39.393Z,22.30
2022-10-31T13:24:49.060Z,20.37
2022-10-31T13:27:56.097Z,18.50
2022-10-31T13:30:58.600Z,19.90
2022-10-31T13:34:05.527Z,24.40
2022-10-31T13:37:17.675Z,18.47
2022-10-31T13:40:34.862Z,17.37
2022-10-31T13:43:56.823Z,18.50
2022-10-31T13:47:00.113Z,22.43
2022-10-31T13:50:08.436Z,18.23
2022-10-31T13:53:20.465Z,24.80
2022-10-31T13:56:27.237Z,23.33
2022-10-31T13:59:32.820Z,24.70
2022-10-31T14:02:37.675Z,21.13
2022-10-31T14:05:40.176Z,21.70
2022-10-31T14:08:49.539Z,23.80
2022-10-31T14:11:54.628Z,22.80
2022-10-31T14:15:07.046Z,23.47
2022-10-31T14:18:24.490Z,21.03
2022-10-31T14:21:32.271Z,21.10
2022-10-31T14:24:38.636Z,25.23
2022-10-31T14:27:52.895Z,25.03
2022-10-31T14:30:56.901Z,25.13
2022-10-31T14:34:00.191Z,25.47
2022-10-31T14:37:38.600Z,24.20
2022-10-31T14:40:53.933Z,23.97
2022-10-31T14:44:21.523Z,21.30
2022-10-31T14:47:34.893Z,26.23
2022-10-31T14:50:47.754Z,22.33
2022-10-31T14:53:52.405Z,24.20
2022-10-31T14:56:58.395Z,23.30
2022-10-31T15:00:06.263Z,25.70
2022-10-31T15:03:16.569Z,22.67
2022-10-31T15:06:22.696Z,26.93
2022-10-31T15:09:27.269Z,22.23
2022-10-31T15:12:32.102Z,30.63
2022-10-31T15:15:36.122Z,23.60
2022-10-31T15:18:46.460Z,22.67
2022-10-31T15:21:49.133Z,23.23
2022-10-31T15:24:56.944Z,19.40
2022-10-31T15:27:59.809Z,24.90
2022-10-31T15:31:04.464Z,23.97
2022-10-31T15:34:16.899Z,19.47
2022-10-31T15:37:21.384Z,21.10
2022-10-31T15:40:27.664Z,23.00
2022-10-31T15:43:37.365Z,27.30
2022-10-31T15:46:41.296Z,30.90
2022-10-31T15:49:50.859Z,29.17
2022-10-31T15:52:53.575Z,30.17
2022-10-31T15:55:58.355Z,29.87
2022-10-31T15:59:02.800Z,31.70
2022-10-31T16:02:13.670Z,24.90
2022-10-31T16:05:19.275Z,25.87
2022-10-31T16:08:27.475Z,32.00
2022-10-31T16:11:36.053Z,32.10
2022-10-31T16:14:42.143Z,28.60
2022-10-31T16:17:48.473Z,28.93
2022-10-31T16:20:53.586Z,29.03
2022-10-31T16:24:03.805Z,23.43
2022-10-31T16:27:19.509Z,28.20
2022-10-31T16:30:42.787Z,27.60
2022-10-31T16:33:50.790Z,24.40
2022-10-31T16:36:53.307Z,22.50
2022-10-31T16:39:55.786Z,27.27
2022-10-31T16:43:00.158Z,25.03
2022-10-31T16:46:02.979Z,29.57
2022-10-31T16:49:06.848Z,24.83
2022-10-31T16:52:09.439Z,26.90
2022-10-31T16:55:15.988Z,31.53
2022-10-31T16:58:23.398Z,33.50
2022-10-31T17:01:26.072Z,33.57
2022-10-31T17:04:30.437Z,32.67
2022-10-31T17:07:32.921Z,27.17
2022-10-31T17:10:36.139Z,31.70
2022-10-31T17:13:38.627Z,32.03
2022-10-31T17:16:41.136Z,29.80
2022-10-31T17:19:44.947Z,30.97
2022-10-31T17:22:47.464Z,32.73
2022-10-31T17:25:49.965Z,38.03
2022-10-31T17:28:52.457Z,34.13
2022-10-31T17:31:54.995Z,30.90
2022-10-31T17:34:58.825Z,29.07
2022-10-31T17:38:01.410Z,31.67
2022-10-31T17:41:10.008Z,35.30
2022-10-31T17:44:14.000Z,45.23
2022-10-31T17:47:16.531Z,38.03
2022-10-31T17:50:22.248Z,31.83
2022-10-31T17:53:24.721Z,35.10
2022-10-31T17:56:27.559Z,29.17
2022-10-31T17:59:30.208Z,26.97
2022-10-31T18:02:32.836Z,33.43
2022-10-31T18:05:37.350Z,28.57
2022-10-31T18:08:41.481Z,29.97
2022-10-31T18:11:44.616Z,29.40
2022-10-31T18:14:48.552Z,32.93
2022-10-31T18:17:51.281Z,38.20
2022-10-31T18:20:58.248Z,28.90
2022-10-31T18:24:02.836Z,31.43
2022-10-31T18:27:06.067Z,32.77
2022-10-31T18:30:09.673Z,28.70
2022-10-31T18:33:12.154Z,33.23
2022-10-31T18:36:16.033Z,33.23
2022-10-31T18:39:18.514Z,42.33
2022-10-31T18:42:21.006Z,36.10
2022-10-31T18:45:33.884Z,36.80
2022-10-31T18:48:46.519Z,32.83
2022-10-31T18:51:50.517Z,31.00
2022-10-31T18:54:53.030Z,31.73
2022-10-31T18:57:55.529Z,29.23
2022-10-31T19:00:58.063Z,35.13
2022-10-31T19:04:00.644Z,31.77
2022-10-31T19:07:04.496Z,30.93
2022-10-31T19:10:07.411Z,35.53
2022-10-31T19:13:10.004Z,32.87
2022-10-31T19:16:14.878Z,32.07
2022-10-31T19:19:17.487Z,36.43
2022-10-31T19:22:21.365Z,36.17
2022-10-31T19:25:23.943Z,31.00
2022-10-31T19:28:26.592Z,36.53
2022-10-31T19:31:29.060Z,38.47
2022-10-31T19:34:31.570Z,38.17
2022-10-31T19:37:35.497Z,38.13
2022-10-31T19:40:38.200Z,37.37
2022-10-31T19:43:40.822Z,43.80
2022-10-31T19:46:53.411Z,42.47
2022-10-31T19:49:56.494Z,39.97
2022-10-31T19:53:01.635Z,41.60
2022-10-31T19:56:04.908Z,46.23
2022-10-31T19:59:07.955Z,40.60
2022-10-31T20:02:19.536Z,43.47
2022-10-31T20:05:22.517Z,42.53
2022-10-31T20:08:26.369Z,39.70
2022-10-31T20:11:29.578Z,40.10
2022-10-31T20:14:32.384Z,38.53
2022-10-31T20:17:34.865Z,34.47
2022-10-31T20:20:37.560Z,38.13
2022-10-31T20:23:42.240Z,40.63
2022-10-31T20:26:44.764Z,42.30
2022-10-31T20:29:47.248Z,42.60
2022-10-31T20:32:50.204Z,40.93
2022-10-31T20:35:53.094Z,40.83
2022-10-31T20:38:56.910Z,44.57
2022-10-31T20:41:59.396Z,41.37
2022-10-31T20:45:02.212Z,43.67
2022-10-31T20:48:05.082Z,44.40
2022-10-31T20:51:10.940Z,41.67
2022-10-31T20:54:15.345Z,42.37
2022-10-31T20:57:17.890Z,45.67
2022-10-31T21:00:20.450Z,46.17
2022-10-31T21:03:23.280Z,40.30
2022-10-31T21:06:26.264Z,44.57
2022-10-31T21:09:30.125Z,45.30
2022-10-31T21:12:32.745Z,46.17
2022-10-31T21:15:35.278Z,46.03
2022-10-31T21:18:38.951Z,45.70
2022-10-31T21:21:41.880Z,40.20
2022-10-31T21:24:45.812Z,44.97
2022-10-31T21:27:48.526Z,43.93
2022-10-31T21:30:52.511Z,45.10
2022-10-31T21:33:55.157Z,49.63
2022-10-31T21:36:57.670Z,45.57
2022-10-31T21:40:01.499Z,45.23
2022-10-31T21:43:04.265Z,48.77
2022-10-31T21:46:08.483Z,47.17
2022-10-31T21:49:11.352Z,46.20
2022-10-31T21:52:14.154Z,52.70
2022-10-31T21:55:17.102Z,48.07
2022-10-31T21:58:19.836Z,49.97
2022-10-31T22:01:23.974Z,56.87
2022-10-31T22:04:26.857Z,49.20
2022-10-31T22:07:29.396Z,46.23
2022-10-31T22:10:34.484Z,52.90
2022-10-31T22:13:37.550Z,44.50
2022-10-31T22:16:40.543Z,44.90
2022-10-31T22:19:43.075Z,51.47
2022-10-31T22:22:47.648Z,43.27
2022-10-31T22:25:51.460Z,44.67
2022-10-31T22:28:57.800Z,43.70
2022-10-31T22:32:01.989Z,39.97
2022-10-31T22:35:05.179Z,38.80
2022-10-31T22:38:07.707Z,37.33
2022-10-31T22:41:12.964Z,35.37
2022-10-31T22:44:15.460Z,41.40
2022-10-31T22:47:17.924Z,36.13
2022-10-31T22:50:20.483Z,35.47
2022-10-31T22:53:22.990Z,36.57
2022-10-31T22:56:29.546Z,34.17
2022-10-31T22:59:32.277Z,38.67
2022-10-31T23:02:35.096Z,38.27
2022-10-31T23:05:37.649Z,37.33
2022-10-31T23:08:40.801Z,39.50
2022-10-31T23:11:45.154Z,38.63
2022-10-31T23:14:46.671Z,34.70
2022-10-31T23:17:49.165Z,37.43
2022-10-31T23:20:52.415Z,35.90
2022-10-31T23:23:54.917Z,33.63
2022-10-31T23:27:09.291Z,31.30
2022-10-31T23:30:12.073Z,30.47
2022-10-31T23:33:14.568Z,25.00
2022-10-31T23:36:17.310Z,29.50
2022-10-31T23:39:22.746Z,30.57
2022-10-31T23:42:29.672Z,33.43
2022-10-31T23:45:32.256Z,27.40
2022-10-31T23:48:34.808Z,27.37
2022-10-31T23:51:37.406Z,26.57
2022-10-31T23:54:40.549Z,23.80
2022-10-31T23:57:44.404Z,28.47
